Time;durP1;ratioP1;P1;durP2;ratioP2;P2;SDS_P1;SDS_P2;PMS_P1;PMS_P2;Temp;Humidity;BMP_temperature;BMP_pressure;BME280_temperature;BME280_humidity;BME280_pressure;Samples;Min_cycle;Max_cycle;Signal;HPM_P1;HPM_P2
2021/04/07 00:00:26;;;;;;;5.07;1.15;;;16.10;92.70;;;;;;5071661;28;20052;-60
2021/04/07 00:02:53;;;;;;;3.22;0.75;;;16.10;93.10;;;;;;5051782;28;20443;-61
2021/04/07 00:05:25;;;;;;;3.72;0.75;;;16.10;93.20;;;;;;5051529;28;20032;-61
2021/04/07 00:07:51;;;;;;;4.07;0.68;;;16.10;93.30;;;;;;5051634;28;20037;-61
2021/04/07 00:10:20;;;;;;;2.75;0.88;;;16.10;93.40;;;;;;5060250;28;20518;-61
2021/04/07 00:12:46;;;;;;;3.90;1.05;;;16.10;93.70;;;;;;5055421;28;20067;-60
2021/04/07 00:15:14;;;;;;;4.45;1.00;;;16.10;94.10;;;;;;5052583;28;20385;-60
2021/04/07 00:17:41;;;;;;;2.42;0.98;;;16.10;93.60;;;;;;5051416;28;20412;-62
2021/04/07 00:20:12;;;;;;;2.70;0.98;;;16.10;93.90;;;;;;5051380;28;20039;-60
2021/04/07 00:22:38;;;;;;;4.57;0.90;;;16.10;94.30;;;;;;5051385;28;20029;-60
2021/04/07 00:25:05;;;;;;;4.60;1.00;;;16.10;94.00;;;;;;5059883;28;20025;-60
2021/04/07 00:27:32;;;;;;;5.47;1.10;;;16.10;94.40;;;;;;5067223;28;20500;-61
2021/04/07 00:29:57;;;;;;;2.60;0.70;;;16.10;94.60;;;;;;5064517;28;20037;-61
2021/04/07 00:32:23;;;;;;;3.15;0.82;;;16.10;94.30;;;;;;5060894;28;20033;-61
2021/04/07 00:34:49;;;;;;;2.75;0.77;;;16.10;95.00;;;;;;5071175;28;20127;-60
2021/04/07 00:37:15;;;;;;;3.63;0.73;;;16.10;94.50;;;;;;5052370;28;20029;-60
2021/04/07 00:39:41;;;;;;;4.65;0.90;;;16.00;94.50;;;;;;5051366;28;20036;-60
2021/04/07 00:42:07;;;;;;;3.08;0.70;;;16.00;94.80;;;;;;5070076;28;20016;-61
2021/04/07 00:44:34;;;;;;;4.60;0.60;;;16.00;94.70;;;;;;5070011;28;20433;-60
2021/04/07 00:46:59;;;;;;;4.10;0.68;;;16.00;95.10;;;;;;5071190;28;20032;-61
2021/04/07 00:49:26;;;;;;;2.75;0.75;;;16.00;94.90;;;;;;5070598;28;20031;-61
2021/04/07 00:51:53;;;;;;;3.65;0.98;;;16.00;94.60;;;;;;5051715;28;20061;-62
2021/04/07 00:54:19;;;;;;;2.38;0.63;;;16.00;95.00;;;;;;5051582;28;20028;-61
2021/04/07 00:56:46;;;;;;;1.83;0.63;;;16.00;94.80;;;;;;5071530;28;20028;-60
2021/04/07 00:59:16;;;;;;;3.40;0.80;;;16.00;95.00;;;;;;5051829;28;20032;-60
2021/04/07 01:01:42;;;;;;;3.20;0.73;;;15.90;94.70;;;;;;5060078;28;20033;-63
2021/04/07 01:04:08;;;;;;;2.20;0.77;;;15.90;94.70;;;;;;5058672;28;20111;-61
2021/04/07 01:06:41;;;;;;;3.95;0.90;;;15.90;94.80;;;;;;5072816;28;20090;-61
2021/04/07 01:09:07;;;;;;;1.15;0.60;;;15.90;94.30;;;;;;5064528;28;20477;-61
2021/04/07 01:11:33;;;;;;;2.65;0.80;;;15.90;95.00;;;;;;5054607;28;20060;-61
2021/04/07 01:14:00;;;;;;;2.53;0.68;;;15.90;94.80;;;;;;5072604;28;20048;-63
2021/04/07 01:16:25;;;;;;;2.30;0.52;;;15.90;95.00;;;;;;5065269;28;20040;-60
2021/04/07 01:18:51;;;;;;;1.80;0.60;;;15.80;94.90;;;;;;5064821;28;20025;-62
2021/04/07 01:21:17;;;;;;;1.55;0.43;;;15.80;94.90;;;;;;5074815;28;20036;-60
2021/04/07 01:23:47;;;;;;;3.33;0.77;;;15.80;95.30;;;;;;5074382;28;20032;-61
2021/04/07 01:26:13;;;;;;;2.00;0.60;;;15.80;94.80;;;;;;5060398;28;20058;-61
2021/04/07 01:28:40;;;;;;;2.03;0.77;;;15.80;94.60;;;;;;5054340;28;20048;-61
2021/04/07 01:31:06;;;;;;;2.08;0.57;;;15.70;94.80;;;;;;5064094;28;20052;-60
2021/04/07 01:33:32;;;;;;;2.50;0.50;;;15.70;95.00;;;;;;5074294;28;20115;-62
2021/04/07 01:35:57;;;;;;;2.92;0.80;;;15.70;94.30;;;;;;5089826;28;20107;-61
2021/04/07 01:38:23;;;;;;;2.80;0.77;;;15.70;94.60;;;;;;5069626;28;20020;-61
2021/04/07 01:40:51;;;;;;;2.72;0.77;;;15.70;94.70;;;;;;5073932;28;20064;-61
2021/04/07 01:43:19;;;;;;;2.70;0.63;;;15.60;95.30;;;;;;5074417;28;20033;-63
2021/04/07 01:45:49;;;;;;;1.70;0.60;;;15.60;94.20;;;;;;5073597;28;20013;-62
2021/04/07 01:48:17;;;;;;;3.15;0.70;;;15.60;94.80;;;;;;5073990;28;20094;-60
2021/04/07 01:50:48;;;;;;;4.47;0.70;;;15.60;95.00;;;;;;5073319;28;20377;-64
2021/04/07 01:53:14;;;;;;;2.67;0.70;;;15.50;94.30;;;;;;5074119;28;20458;-61
2021/04/07 01:55:40;;;;;;;4.88;0.98;;;15.50;94.40;;;;;;5073917;28;20036;-62
2021/04/07 01:58:06;;;;;;;3.88;0.93;;;15.50;94.80;;;;;;5073960;28;20341;-61
2021/04/07 02:00:32;;;;;;;2.47;0.73;;;15.50;94.50;;;;;;5064050;28;20499;-62
2021/04/07 02:02:59;;;;;;;4.05;0.70;;;15.50;94.50;;;;;;5072765;28;20038;-61
2021/04/07 02:05:25;;;;;;;3.10;0.68;;;15.40;95.10;;;;;;5073678;28;20064;-62
2021/04/07 02:07:51;;;;;;;2.38;0.73;;;15.40;95.40;;;;;;5072634;28;20056;-61
2021/04/07 02:10:16;;;;;;;2.67;0.60;;;15.40;94.80;;;;;;5073621;28;20465;-60
2021/04/07 02:12:42;;;;;;;1.90;0.70;;;15.40;95.00;;;;;;5073022;28;20040;-61
2021/04/07 02:15:13;;;;;;;3.58;0.60;;;15.30;94.60;;;;;;5073228;28;20081;-61
2021/04/07 02:17:39;;;;;;;2.28;0.80;;;15.30;94.50;;;;;;5073312;28;20029;-60
2021/04/07 02:20:07;;;;;;;2.50;0.70;;;15.30;94.60;;;;;;5073083;28;20035;-59
2021/04/07 02:22:33;;;;;;;3.85;0.85;;;15.20;94.50;;;;;;5073361;28;20119;-60
2021/04/07 02:24:58;;;;;;;3.08;0.68;;;15.20;95.00;;;;;;5100773;28;20425;-62
2021/04/07 02:27:25;;;;;;;4.20;0.90;;;15.20;95.40;;;;;;5073433;28;20031;-61
2021/04/07 02:29:56;;;;;;;3.45;0.68;;;15.20;94.80;;;;;;5072300;28;20190;-61
2021/04/07 02:32:23;;;;;;;3.13;0.70;;;15.20;94.80;;;;;;5072371;28;20447;-61
2021/04/07 02:34:49;;;;;;;2.97;0.63;;;15.20;94.70;;;;;;5071960;28;20029;-60
2021/04/07 02:37:16;;;;;;;5.65;0.70;;;15.20;94.40;;;;;;5071490;28;20036;-62
2021/04/07 02:39:44;;;;;;;2.72;0.60;;;15.10;94.50;;;;;;5072653;28;20048;-61
2021/04/07 02:42:10;;;;;;;2.42;0.77;;;15.10;94.70;;;;;;5072811;28;20047;-61
2021/04/07 02:44:37;;;;;;;2.08;0.63;;;15.00;94.60;;;;;;5072865;28;20037;-60
2021/04/07 02:47:03;;;;;;;6.60;0.90;;;15.00;94.80;;;;;;5072898;28;20369;-60
2021/04/07 02:49:29;;;;;;;2.53;0.82;;;15.00;94.60;;;;;;5072664;28;20020;-60
2021/04/07 02:51:55;;;;;;;4.50;0.90;;;15.00;94.30;;;;;;5073094;28;20038;-59
2021/04/07 02:54:21;;;;;;;4.35;1.02;;;15.00;94.60;;;;;;5072941;28;20040;-62
2021/04/07 02:56:47;;;;;;;2.75;0.68;;;15.00;94.70;;;;;;5072488;28;20058;-62
2021/04/07 02:59:12;;;;;;;2.80;1.00;;;14.90;94.70;;;;;;5071997;28;20024;-61
2021/04/07 03:01:38;;;;;;;3.17;0.98;;;14.90;94.90;;;;;;5072342;28;20024;-61
2021/04/07 03:04:04;;;;;;;2.03;0.63;;;14.90;94.70;;;;;;5072583;28;20451;-62
2021/04/07 03:06:30;;;;;;;2.42;1.00;;;14.90;95.10;;;;;;5072086;28;20036;-60
2021/04/07 03:08:55;;;;;;;3.58;0.95;;;14.90;94.70;;;;;;5072713;28;20029;-60
2021/04/07 03:11:21;;;;;;;4.15;0.90;;;14.80;94.40;;;;;;5072345;28;20028;-60
2021/04/07 03:13:47;;;;;;;4.60;1.15;;;14.80;94.60;;;;;;5067505;28;20506;-61
2021/04/07 03:16:12;;;;;;;5.15;1.15;;;14.80;95.00;;;;;;5071752;28;20115;-60
2021/04/07 03:18:38;;;;;;;4.43;0.90;;;14.80;95.10;;;;;;5071673;28;20110;-60
2021/04/07 03:21:04;;;;;;;5.28;1.17;;;14.80;94.80;;;;;;5072272;28;20032;-60
2021/04/07 03:23:30;;;;;;;4.00;1.02;;;14.70;95.30;;;;;;5072188;28;20427;-60
2021/04/07 03:25:56;;;;;;;3.63;1.27;;;14.70;95.00;;;;;;5071848;28;20036;-59
2021/04/07 03:28:22;;;;;;;2.90;0.90;;;14.70;95.10;;;;;;5071535;28;20086;-61
2021/04/07 03:30:51;;;;;;;7.18;1.02;;;14.70;95.20;;;;;;5054700;28;20039;-60
2021/04/07 03:33:32;;;;;;;4.82;0.93;;;14.60;94.90;;;;;;5064218;28;20028;-60
2021/04/07 03:35:59;;;;;;;5.57;0.90;;;14.60;95.00;;;;;;5072387;28;20020;-62
2021/04/07 03:38:26;;;;;;;2.85;1.17;;;14.60;95.20;;;;;;5071954;28;20033;-59
2021/04/07 03:40:52;;;;;;;4.60;1.02;;;14.60;95.20;;;;;;5071048;28;20032;-60
2021/04/07 03:43:19;;;;;;;3.80;0.98;;;14.50;95.10;;;;;;5071685;28;20074;-60
2021/04/07 03:45:47;;;;;;;3.13;0.93;;;14.50;95.00;;;;;;5070065;28;20423;-60
2021/04/07 03:48:15;;;;;;;4.18;1.15;;;14.50;95.00;;;;;;5071874;28;20060;-60
2021/04/07 03:50:42;;;;;;;4.32;0.95;;;14.50;95.00;;;;;;5071625;28;20036;-60
2021/04/07 03:53:08;;;;;;;2.45;0.82;;;14.40;94.90;;;;;;5072061;28;20380;-61
2021/04/07 03:55:34;;;;;;;2.17;0.93;;;14.40;95.00;;;;;;5071569;28;20027;-60
2021/04/07 03:58:00;;;;;;;2.30;0.82;;;14.40;94.90;;;;;;5071732;28;20107;-60
2021/04/07 04:00:26;;;;;;;3.22;1.02;;;14.40;95.20;;;;;;5058437;28;20025;-62
2021/04/07 04:02:52;;;;;;;3.72;1.15;;;14.40;95.00;;;;;;5071797;28;20024;-62
2021/04/07 04:05:17;;;;;;;4.03;1.20;;;14.40;95.10;;;;;;5071628;28;20028;-61
2021/04/07 04:07:43;;;;;;;4.45;1.30;;;14.40;94.80;;;;;;5071674;28;20036;-62
2021/04/07 04:10:09;;;;;;;2.20;1.00;;;14.30;94.80;;;;;;5071372;28;20028;-62
2021/04/07 04:12:35;;;;;;;2.20;0.90;;;14.30;94.80;;;;;;5071171;28;20032;-60
2021/04/07 04:15:01;;;;;;;2.63;0.80;;;14.30;95.10;;;;;;5071205;28;20021;-60
2021/04/07 04:17:27;;;;;;;2.60;0.80;;;14.30;95.00;;;;;;5104323;28;20119;-61
2021/04/07 04:19:52;;;;;;;2.85;0.90;;;14.30;95.10;;;;;;5071508;28;20036;-61
2021/04/07 04:22:18;;;;;;;3.15;0.98;;;14.30;94.90;;;;;;5071271;28;20029;-62
2021/04/07 04:24:46;;;;;;;4.25;1.05;;;14.30;95.50;;;;;;5071035;28;20113;-62
2021/04/07 04:27:12;;;;;;;3.30;1.10;;;14.20;95.30;;;;;;5071373;28;20036;-61
2021/04/07 04:29:38;;;;;;;5.22;0.88;;;14.30;95.30;;;;;;5070748;28;20034;-60
2021/04/07 04:32:04;;;;;;;3.45;0.98;;;14.20;95.10;;;;;;5071420;28;20025;-61
2021/04/07 04:34:29;;;;;;;3.47;1.00;;;14.20;95.10;;;;;;5063797;28;20070;-62
2021/04/07 04:36:55;;;;;;;4.05;1.05;;;14.20;95.30;;;;;;5071129;28;20029;-61
2021/04/07 04:39:21;;;;;;;2.30;1.08;;;14.20;95.50;;;;;;5071283;28;20429;-60
2021/04/07 04:41:46;;;;;;;2.38;1.10;;;14.20;95.40;;;;;;5071886;28;20538;-61
2021/04/07 04:44:12;;;;;;;5.70;0.98;;;14.10;95.30;;;;;;5074944;28;20029;-60
2021/04/07 04:46:37;;;;;;;2.78;0.80;;;14.10;95.50;;;;;;5074994;28;20425;-61
2021/04/07 04:49:03;;;;;;;3.35;1.15;;;14.10;95.50;;;;;;5074874;28;20564;-59
2021/04/07 04:51:29;;;;;;;3.03;0.85;;;14.20;95.60;;;;;;5074654;28;20071;-61
2021/04/07 04:53:55;;;;;;;5.50;1.05;;;14.10;96.00;;;;;;5073443;28;20038;-59
2021/04/07 04:56:21;;;;;;;3.80;1.05;;;14.20;95.70;;;;;;5074488;28;20020;-60
2021/04/07 04:58:46;;;;;;;3.28;1.17;;;14.10;96.00;;;;;;5089523;28;20499;-60
2021/04/07 05:01:12;;;;;;;4.80;0.88;;;14.10;96.10;;;;;;5065177;28;20017;-59
2021/04/07 05:03:38;;;;;;;4.82;1.38;;;14.10;95.80;;;;;;5070060;28;20056;-60
2021/04/07 05:06:04;;;;;;;2.03;0.63;;;14.00;95.60;;;;;;5074387;28;20032;-61
2021/04/07 05:08:29;;;;;;;3.53;1.10;;;14.00;95.50;;;;;;5075132;28;20366;-60
2021/04/07 05:10:55;;;;;;;4.28;0.90;;;14.00;95.80;;;;;;5074838;28;20027;-60
2021/04/07 05:13:21;;;;;;;4.82;1.10;;;14.00;95.20;;;;;;5074340;28;20035;-60
2021/04/07 05:15:46;;;;;;;5.22;1.02;;;14.00;95.50;;;;;;5073862;28;20033;-60
2021/04/07 05:18:17;;;;;;;3.28;1.08;;;14.00;95.40;;;;;;5074744;28;20016;-59
2021/04/07 05:20:43;;;;;;;5.82;1.17;;;14.00;95.60;;;;;;5074499;28;20472;-62
2021/04/07 05:23:10;;;;;;;3.17;0.90;;;13.90;95.50;;;;;;5074044;28;20108;-61
2021/04/07 05:25:37;;;;;;;3.97;1.10;;;13.90;95.40;;;;;;5074252;28;20035;-62
2021/04/07 05:28:07;;;;;;;5.68;1.23;;;13.90;95.40;;;;;;5074869;28;20082;-60
2021/04/07 05:33:19;;;;;;;2.65;0.93;;;13.90;95.40;;;;;;5074734;28;20031;-62
2021/04/07 05:35:45;;;;;;;3.90;0.90;;;13.90;95.40;;;;;;5074094;28;20048;-61
2021/04/07 05:38:10;;;;;;;3.67;0.85;;;13.90;95.30;;;;;;5074417;28;20059;-61
2021/04/07 05:40:36;;;;;;;3.97;1.08;;;13.90;95.60;;;;;;5072988;28;20093;-60
2021/04/07 05:43:03;;;;;;;7.15;1.33;;;13.80;95.30;;;;;;5074116;28;20028;-60
2021/04/07 05:45:29;;;;;;;6.85;1.10;;;13.90;96.20;;;;;;5068362;28;20021;-61
2021/04/07 05:47:55;;;;;;;6.05;1.20;;;13.80;96.00;;;;;;5066325;28;20537;-60
2021/04/07 05:50:20;;;;;;;6.40;0.90;;;13.80;96.10;;;;;;5070087;28;20548;-60
2021/04/07 05:52:50;;;;;;;9.05;1.25;;;13.80;95.40;;;;;;5072005;28;20044;-59
2021/04/07 05:55:17;;;;;;;7.32;1.23;;;13.80;94.80;;;;;;5074089;28;20025;-66
2021/04/07 05:57:42;;;;;;;4.63;1.50;;;13.70;93.00;;;;;;5074090;28;20093;-60
2021/04/07 06:00:09;;;;;;;8.02;1.90;;;13.40;91.30;;;;;;5073916;28;20476;-61
2021/04/07 06:02:38;;;;;;;5.13;1.83;;;13.10;90.00;;;;;;5074355;28;20380;-61
2021/04/07 06:05:04;;;;;;;6.40;1.70;;;12.90;87.80;;;;;;5074225;28;20103;-62
2021/04/07 06:07:30;;;;;;;2.92;1.10;;;12.70;87.00;;;;;;5073912;28;20115;-61
2021/04/07 06:09:55;;;;;;;3.60;1.08;;;13.10;87.30;;;;;;5073858;28;20479;-60
2021/04/07 06:12:21;;;;;;;5.75;1.13;;;13.30;86.50;;;;;;5073694;28;20029;-61
2021/04/07 06:14:47;;;;;;;4.10;1.20;;;13.50;85.80;;;;;;5073671;28;20029;-60
2021/04/07 06:17:12;;;;;;;2.20;1.00;;;13.60;85.60;;;;;;5073695;28;20025;-59
2021/04/07 06:19:38;;;;;;;3.92;1.10;;;13.60;84.30;;;;;;5073466;28;20028;-60
2021/04/07 06:22:04;;;;;;;3.55;1.30;;;13.60;85.50;;;;;;5073039;28;20033;-59
2021/04/07 06:24:29;;;;;;;4.82;1.23;;;13.60;86.40;;;;;;5058480;28;20021;-60
2021/04/07 06:26:55;;;;;;;4.10;1.13;;;13.60;85.90;;;;;;5053179;28;20021;-60
2021/04/07 06:29:20;;;;;;;3.03;1.10;;;13.70;86.10;;;;;;5053180;28;20112;-60
2021/04/07 06:31:46;;;;;;;4.57;1.55;;;13.80;86.60;;;;;;5053852;28;20028;-60
2021/04/07 06:34:11;;;;;;;3.63;1.20;;;13.80;85.40;;;;;;5072982;28;20035;-60
2021/04/07 06:36:37;;;;;;;5.55;1.45;;;13.90;84.80;;;;;;5072285;28;20407;-60
2021/04/07 06:39:03;;;;;;;1.67;0.77;;;13.80;84.40;;;;;;5072686;28;20025;-60
2021/04/07 06:41:28;;;;;;;4.80;1.23;;;13.80;84.30;;;;;;5072695;28;20376;-60
2021/04/07 06:43:56;;;;;;;3.65;1.20;;;13.80;83.70;;;;;;5072224;28;20024;-59
2021/04/07 06:46:23;;;;;;;2.20;1.17;;;13.80;85.20;;;;;;5071844;28;20060;-61
2021/04/07 06:48:52;;;;;;;3.45;1.02;;;13.80;86.20;;;;;;5071658;28;20422;-60
2021/04/07 06:51:21;;;;;;;3.67;1.10;;;13.90;86.40;;;;;;5061135;28;20127;-62
2021/04/07 06:53:51;;;;;;;3.63;1.30;;;13.90;86.10;;;;;;5070487;28;20353;-60
2021/04/07 06:56:18;;;;;;;2.33;0.90;;;13.90;85.70;;;;;;5072546;28;20109;-60
2021/04/07 06:58:44;;;;;;;3.42;1.10;;;13.80;85.50;;;;;;5072626;28;20423;-60
2021/04/07 07:01:10;;;;;;;3.70;1.17;;;13.90;85.20;;;;;;5072715;28;20052;-60
2021/04/07 07:03:37;;;;;;;1.58;0.82;;;13.90;85.90;;;;;;5072298;28;20048;-60
2021/04/07 07:06:02;;;;;;;3.47;0.98;;;13.80;85.80;;;;;;5072080;28;20024;-60
2021/04/07 07:08:30;;;;;;;1.95;1.08;;;13.80;85.70;;;;;;5072288;28;20032;-60
2021/04/07 07:10:56;;;;;;;3.40;1.10;;;13.80;85.70;;;;;;5072226;28;20028;-61
2021/04/07 07:13:25;;;;;;;2.00;0.90;;;13.80;85.60;;;;;;5072442;28;20025;-60
2021/04/07 07:15:52;;;;;;;1.85;0.70;;;13.80;85.70;;;;;;5072278;28;20027;-60
2021/04/07 07:18:25;;;;;;;1.63;0.90;;;13.80;85.70;;;;;;5057367;28;20150;-59
2021/04/07 07:20:52;;;;;;;4.43;0.70;;;13.90;87.10;;;;;;5055067;28;20050;-60
2021/04/07 07:23:27;;;;;;;1.00;0.70;;;14.80;85.60;;;;;;5052212;28;20017;-61
2021/04/07 07:26:03;;;;;;;2.35;0.85;;;15.80;84.30;;;;;;5052412;28;20082;-61
2021/04/07 07:28:38;;;;;;;3.15;0.85;;;16.60;82.30;;;;;;5069066;28;20495;-61
2021/04/07 07:31:16;;;;;;;2.83;1.15;;;17.20;81.20;;;;;;5072334;28;20063;-62
2021/04/07 07:33:42;;;;;;;2.85;0.95;;;17.80;80.50;;;;;;5072068;28;20024;-60
2021/04/07 07:36:11;;;;;;;4.05;0.85;;;18.20;79.80;;;;;;5072525;28;20062;-62
2021/04/07 07:38:44;;;;;;;2.33;0.60;;;18.50;79.40;;;;;;5072488;28;20024;-60
2021/04/07 07:41:10;;;;;;;2.15;0.77;;;18.90;79.00;;;;;;5070393;28;20030;-62
2021/04/07 07:43:37;;;;;;;2.30;0.70;;;19.10;78.50;;;;;;5072101;28;20040;-61
2021/04/07 07:46:14;;;;;;;2.30;0.95;;;19.40;78.20;;;;;;5071454;28;20033;-61
2021/04/07 07:48:41;;;;;;;2.97;0.90;;;19.70;77.90;;;;;;5072383;28;20042;-63
2021/04/07 07:51:20;;;;;;;1.98;0.80;;;20.10;77.60;;;;;;5067726;28;20070;-60
2021/04/07 07:53:48;;;;;;;2.33;0.63;;;20.40;77.40;;;;;;5052042;28;20112;-62
2021/04/07 07:56:16;;;;;;;2.65;0.85;;;20.50;77.10;;;;;;5054493;28;20032;-63
2021/04/07 07:58:50;;;;;;;2.88;0.90;;;20.80;77.00;;;;;;5068191;28;20036;-62
2021/04/07 08:01:16;;;;;;;;;;;21.00;76.80;;;;;;5071229;28;20028;-64
2021/04/07 08:03:47;;;;;;;5.43;0.90;;;21.20;76.50;;;;;;5072217;28;19904;-66
2021/04/07 08:06:14;;;;;;;2.75;1.08;;;21.00;76.80;;;;;;5071596;28;20023;-63
2021/04/07 08:08:40;;;;;;;8.68;0.95;;;20.10;79.80;;;;;;5072185;28;20051;-63
2021/04/07 08:11:10;;;;;;;1.85;0.70;;;19.30;81.90;;;;;;5071849;28;20424;-64
2021/04/07 08:13:46;;;;;;;3.13;0.90;;;19.70;80.80;;;;;;5071832;28;20027;-63
2021/04/07 08:16:17;;;;;;;1.60;0.70;;;20.40;79.60;;;;;;5075438;28;20028;-61
2021/04/07 08:18:45;;;;;;;1.67;0.75;;;20.10;81.70;;;;;;5075477;28;20086;-63
2021/04/07 08:21:13;;;;;;;2.63;0.73;;;19.50;82.60;;;;;;5076019;28;20025;-64
2021/04/07 08:23:43;;;;;;;2.92;0.80;;;20.10;81.30;;;;;;5075931;28;20075;-65
2021/04/07 08:26:09;;;;;;;2.50;0.70;;;20.50;80.30;;;;;;5067382;28;20052;-61
2021/04/07 08:28:40;;;;;;;4.70;0.70;;;20.00;84.20;;;;;;5055660;28;20035;-61
2021/04/07 08:31:10;;;;;;;1.90;0.68;;;19.70;82.60;;;;;;5055633;28;20025;-63
2021/04/07 08:33:36;;;;;;;2.53;0.90;;;20.40;81.60;;;;;;5055502;28;20418;-62
2021/04/07 08:36:02;;;;;;;1.75;0.70;;;20.40;83.30;;;;;;5055544;28;20163;-64
2021/04/07 08:38:32;;;;;;;2.47;0.68;;;19.90;84.40;;;;;;5055482;28;20473;-64
2021/04/07 08:41:30;;;;;;;1.92;0.73;;;20.00;82.90;;;;;;5055431;28;20021;-62
2021/04/07 08:43:56;;;;;;;1.42;0.68;;;20.60;81.80;;;;;;5055384;28;20040;-64
2021/04/07 08:46:28;;;;;;;1.63;0.70;;;20.10;84.80;;;;;;5055161;28;20420;-64
2021/04/07 08:48:55;;;;;;;1.33;0.50;;;19.70;85.40;;;;;;5055016;28;20087;-65
2021/04/07 08:51:23;;;;;;;2.75;0.70;;;20.30;83.50;;;;;;5055314;28;20029;-64
2021/04/07 08:53:54;;;;;;;2.05;0.70;;;20.50;83.10;;;;;;5060032;28;20024;-63
2021/04/07 08:56:29;;;;;;;2.38;0.73;;;20.10;84.30;;;;;;5075184;28;20032;-63
2021/04/07 08:59:03;;;;;;;1.88;0.80;;;19.80;84.60;;;;;;5073300;28;20147;-61
2021/04/07 09:01:34;;;;;;;2.17;0.75;;;20.50;83.40;;;;;;5055115;28;20406;-64
2021/04/07 09:04:09;;;;;;;1.40;0.70;;;20.30;85.50;;;;;;5054978;28;20029;-65
2021/04/07 09:06:39;;;;;;;1.92;0.75;;;19.90;86.10;;;;;;5072080;28;20029;-64
2021/04/07 09:09:06;;;;;;;2.38;0.93;;;20.10;84.60;;;;;;5073358;28;20041;-65
2021/04/07 09:11:35;;;;;;;1.77;0.73;;;20.60;83.40;;;;;;5074370;28;20032;-64
2021/04/07 09:14:04;;;;;;;1.42;0.60;;;20.40;84.90;;;;;;5074363;28;20032;-64
2021/04/07 09:16:31;;;;;;;1.65;0.52;;;20.00;85.10;;;;;;5074705;28;20024;-63
2021/04/07 09:18:57;;;;;;;2.33;0.55;;;20.20;84.70;;;;;;5073485;28;20099;-64
2021/04/07 09:21:22;;;;;;;2.40;0.70;;;20.70;83.70;;;;;;5074783;28;20107;-64
2021/04/07 09:23:54;;;;;;;2.05;0.57;;;20.40;85.40;;;;;;5073442;28;20388;-63
2021/04/07 09:26:22;;;;;;;2.08;0.63;;;20.00;85.60;;;;;;5073516;28;20020;-64
2021/04/07 09:28:52;;;;;;;1.25;0.60;;;20.30;84.90;;;;;;5073255;28;20361;-64
2021/04/07 09:31:18;;;;;;;1.58;0.85;;;20.70;84.10;;;;;;5074506;28;20040;-66
2021/04/07 09:33:53;;;;;;;1.73;0.82;;;19.90;75.20;;;;;;5074677;28;20525;-64
2021/04/07 09:36:26;;;;;;;3.30;0.73;;;19.90;81.10;;;;;;5074533;28;20032;-65
2021/04/07 09:38:53;;;;;;;3.67;0.70;;;20.70;79.70;;;;;;5073111;28;20032;-65
2021/04/07 09:41:26;;;;;;;2.13;0.80;;;20.60;81.90;;;;;;5073986;28;20033;-63
2021/04/07 09:43:52;;;;;;;3.35;0.85;;;20.30;82.00;;;;;;5074277;28;20032;-63
2021/04/07 09:46:19;;;;;;;1.48;0.70;;;20.20;81.60;;;;;;5089889;28;20047;-63
2021/04/07 09:48:44;;;;;;;3.47;0.70;;;20.80;80.40;;;;;;5088457;28;20067;-64
2021/04/07 09:51:27;;;;;;;3.35;0.85;;;20.70;82.30;;;;;;5073938;28;20060;-63
2021/04/07 09:54:06;;;;;;;1.30;0.65;;;20.40;83.30;;;;;;5074337;28;20020;-64
2021/04/07 09:56:43;;;;;;;2.50;0.60;;;20.20;82.40;;;;;;5074051;28;20027;-62
2021/04/07 09:59:09;;;;;;;1.30;0.57;;;20.80;81.20;;;;;;5074140;28;20024;-62
2021/04/07 10:01:39;;;;;;;1.50;0.70;;;20.80;83.40;;;;;;5073645;28;20025;-64
2021/04/07 10:04:05;;;;;;;2.92;0.80;;;20.50;83.80;;;;;;5073949;28;20033;-64
2021/04/07 10:06:30;;;;;;;2.78;0.80;;;20.30;83.40;;;;;;5072751;28;20028;-63
2021/04/07 10:09:05;;;;;;;1.48;0.60;;;20.70;82.60;;;;;;5069318;28;20538;-63
2021/04/07 10:11:31;;;;;;;3.17;1.00;;;20.90;82.20;;;;;;5069712;28;20017;-63
2021/04/07 10:14:01;;;;;;;2.03;0.77;;;20.70;82.60;;;;;;5072341;28;20512;-64
2021/04/07 10:16:40;;;;;;;2.55;0.50;;;20.40;82.90;;;;;;5072490;28;20440;-63
2021/04/07 10:19:10;;;;;;;1.88;0.80;;;20.40;83.00;;;;;;5070010;28;20028;-63
2021/04/07 10:21:37;;;;;;;1.25;0.70;;;20.90;81.90;;;;;;5072466;28;20020;-64
2021/04/07 10:24:04;;;;;;;2.95;0.70;;;20.70;81.90;;;;;;5070075;28;20083;-64
2021/04/07 10:26:30;;;;;;;1.63;0.70;;;20.30;82.10;;;;;;5071877;28;20044;-64
2021/04/07 10:28:56;;;;;;;3.08;0.80;;;20.10;82.70;;;;;;5071915;28;20052;-62
2021/04/07 10:31:23;;;;;;;1.70;0.60;;;20.80;81.70;;;;;;5071958;28;20123;-63
2021/04/07 10:33:48;;;;;;;1.05;0.40;;;20.70;81.30;;;;;;5071760;28;20086;-63
2021/04/07 10:36:14;;;;;;;1.13;0.60;;;20.40;81.40;;;;;;5069234;28;20013;-63
2021/04/07 10:38:40;;;;;;;0.73;0.40;;;20.20;82.00;;;;;;5070784;28;20029;-64
2021/04/07 10:41:06;;;;;;;2.65;0.90;;;20.40;82.00;;;;;;5063937;28;20025;-64
2021/04/07 10:43:34;;;;;;;1.92;0.70;;;20.80;80.80;;;;;;5071950;28;20396;-63
2021/04/07 10:46:01;;;;;;;1.85;0.60;;;20.60;80.80;;;;;;5067803;28;20029;-62
2021/04/07 10:48:28;;;;;;;1.30;0.57;;;20.30;81.20;;;;;;5072158;28;20036;-62
2021/04/07 10:50:54;;;;;;;1.20;0.63;;;20.10;81.50;;;;;;5071483;28;20128;-64
2021/04/07 10:53:38;;;;;;;1.58;0.70;;;20.70;80.70;;;;;;5071523;28;20503;-62
2021/04/07 10:56:22;;;;;;;1.05;0.63;;;20.80;80.10;;;;;;5071617;28;20103;-63
2021/04/07 10:59:00;;;;;;;1.52;0.70;;;20.50;80.40;;;;;;5069609;28;20033;-64
2021/04/07 11:01:27;;;;;;;2.22;0.65;;;20.30;80.70;;;;;;5068829;28;20044;-63
2021/04/07 11:03:53;;;;;;;1.55;0.65;;;20.40;81.30;;;;;;5068921;28;20025;-64
2021/04/07 11:06:23;;;;;;;3.30;0.80;;;20.90;80.00;;;;;;5071195;28;20042;-62
2021/04/07 11:08:52;;;;;;;1.58;0.60;;;20.80;79.80;;;;;;5073650;28;20032;-61
2021/04/07 11:11:26;;;;;;;1.55;0.60;;;20.60;80.30;;;;;;5073543;28;20028;-64
2021/04/07 11:13:53;;;;;;;1.63;0.70;;;20.40;80.40;;;;;;5068837;28;20012;-64
2021/04/07 11:16:19;;;;;;;1.27;0.55;;;20.30;81.10;;;;;;5071507;28;20381;-64
2021/04/07 11:18:45;;;;;;;1.88;0.60;;;20.60;80.40;;;;;;5070894;28;20115;-62
2021/04/07 11:21:13;;;;;;;2.92;0.70;;;20.50;80.10;;;;;;5071627;28;20104;-61
2021/04/07 11:23:38;;;;;;;4.65;0.70;;;20.20;80.40;;;;;;5070577;28;20043;-62
2021/04/07 11:26:07;;;;;;;1.80;0.77;;;20.10;80.70;;;;;;5070847;28;20460;-61
2021/04/07 11:28:33;;;;;;;2.28;0.82;;;20.00;80.80;;;;;;5070269;28;20037;-61
2021/04/07 11:33:30;;;;;;;2.58;0.65;;;20.00;81.10;;;;;;5070826;28;20032;-61
2021/04/07 11:36:04;;;;;;;1.58;0.63;;;20.00;81.30;;;;;;5086319;28;20124;-61
2021/04/07 11:38:32;;;;;;;1.83;0.70;;;19.90;81.40;;;;;;5068243;28;20025;-62
2021/04/07 11:41:41;;;;;;;2.15;0.80;;;20.20;81.80;;;;;;5057592;28;20486;-64
2021/04/07 11:46:26;;;;;;;1.45;0.65;;;22.10;78.30;;;;;;5069495;28;20425;-64
2021/04/07 11:48:52;;;;;;;1.73;0.70;;;21.80;81.00;;;;;;5070047;28;20111;-62
2021/04/07 11:51:18;;;;;;;1.88;0.80;;;21.50;81.50;;;;;;5085875;28;20112;-64
2021/04/07 11:53:48;;;;;;;2.70;0.82;;;21.70;79.90;;;;;;5066670;28;20028;-63
2021/04/07 11:56:15;;;;;;;1.67;0.70;;;22.30;79.20;;;;;;5070475;28;20021;-63
2021/04/07 11:58:41;;;;;;;2.78;0.85;;;22.00;81.40;;;;;;5068554;28;20068;-64
2021/04/07 12:01:07;;;;;;;2.45;0.82;;;21.70;82.10;;;;;;5070072;28;20067;-63
2021/04/07 12:03:33;;;;;;;4.05;0.90;;;22.00;80.60;;;;;;5070567;28;20065;-61
2021/04/07 12:05:58;;;;;;;4.25;0.90;;;22.40;80.20;;;;;;5067915;28;20036;-60
2021/04/07 12:08:24;;;;;;;4.40;0.80;;;22.10;80.30;;;;;;5069128;28;20040;-63
2021/04/07 12:10:50;;;;;;;2.97;0.98;;;21.80;82.20;;;;;;5069665;28;20028;-62
2021/04/07 12:13:16;;;;;;;4.80;0.80;;;21.90;81.60;;;;;;5070822;28;20099;-61
2021/04/07 12:15:42;;;;;;;2.50;0.70;;;22.60;80.30;;;;;;5070420;28;20155;-62
2021/04/07 12:18:08;;;;;;;1.42;0.70;;;22.50;81.10;;;;;;5071279;28;20459;-63
2021/04/07 12:20:34;;;;;;;4.47;0.93;;;22.30;83.20;;;;;;5071555;28;20423;-62
2021/04/07 12:23:01;;;;;;;3.33;0.80;;;22.10;82.70;;;;;;5070618;28;20111;-62
2021/04/07 12:25:28;;;;;;;2.03;0.70;;;22.50;81.60;;;;;;5054574;28;20029;-63
2021/04/07 12:27:54;;;;;;;3.58;0.90;;;22.80;82.00;;;;;;5069450;28;20127;-60
2021/04/07 12:30:21;;;;;;;4.00;1.00;;;22.70;82.20;;;;;;5070316;28;20013;-63
2021/04/07 12:32:47;;;;;;;3.60;0.70;;;22.40;82.20;;;;;;5071892;28;20086;-65
2021/04/07 12:35:21;;;;;;;3.90;0.90;;;22.20;83.00;;;;;;5067815;28;20476;-63
2021/04/07 12:37:47;;;;;;;3.22;0.90;;;22.90;81.00;;;;;;5071735;28;20021;-63
2021/04/07 12:40:13;;;;;;;3.35;0.80;;;23.00;82.00;;;;;;5086461;28;20085;-61
2021/04/07 12:42:39;;;;;;;3.45;0.80;;;22.90;83.00;;;;;;5071376;28;20032;-62
2021/04/07 12:45:06;;;;;;;3.10;0.90;;;22.70;84.20;;;;;;5071286;28;20021;-63
2021/04/07 12:47:32;;;;;;;2.35;0.63;;;22.50;84.30;;;;;;5070172;28;20032;-61
2021/04/07 12:49:58;;;;;;;4.85;0.90;;;22.90;82.90;;;;;;5070348;28;20402;-65
2021/04/07 12:52:23;;;;;;;2.38;0.80;;;23.10;84.00;;;;;;5070539;28;20050;-62
2021/04/07 12:54:49;;;;;;;2.15;0.68;;;23.00;84.70;;;;;;5071117;28;20025;-62
2021/04/07 12:57:16;;;;;;;3.50;0.93;;;22.90;84.90;;;;;;5051810;28;20102;-61